sensor_id;sensor_type;location;lat;lon;timestamp;pressure;altitude;pressure_sealevel;temperature;humidity
41306;BME280;27051;50.376;19.152;2023-12-04T00:02:14;98726.25;;;-1.50;59.85
41306;BME280;27051;50.376;19.152;2023-12-04T00:04:41;98723.27;;;-1.56;59.97
41306;BME280;27051;50.376;19.152;2023-12-04T00:07:08;98718.20;;;-1.61;59.78
41306;BME280;27051;50.376;19.152;2023-12-04T00:09:38;98717.05;;;-1.64;59.90
41306;BME280;27051;50.376;19.152;2023-12-04T00:12:05;98718.00;;;-1.61;59.97
41306;BME280;27051;50.376;19.152;2023-12-04T00:14:32;98721.39;;;-1.55;59.98
41306;BME280;27051;50.376;19.152;2023-12-04T00:16:59;98728.91;;;-1.52;59.86
41306;BME280;27051;50.376;19.152;2023-12-04T00:19:26;98734.02;;;-1.52;59.89
41306;BME280;27051;50.376;19.152;2023-12-04T00:21:53;98740.19;;;-1.44;59.75
41306;BME280;27051;50.376;19.152;2023-12-04T00:24:20;98742.64;;;-1.46;59.42
41306;BME280;27051;50.376;19.152;2023-12-04T00:26:47;98746.91;;;-1.51;59.47
41306;BME280;27051;50.376;19.152;2023-12-04T00:29:14;98749.36;;;-1.53;59.21
41306;BME280;27051;50.376;19.152;2023-12-04T00:31:41;98752.17;;;-1.52;59.13
41306;BME280;27051;50.376;19.152;2023-12-04T00:34:08;98748.83;;;-1.54;58.94
41306;BME280;27051;50.376;19.152;2023-12-04T00:36:35;98752.78;;;-1.57;58.79
41306;BME280;27051;50.376;19.152;2023-12-04T00:39:02;98756.64;;;-1.68;58.41
41306;BME280;27051;50.376;19.152;2023-12-04T00:41:38;98757.44;;;-1.75;58.49
41306;BME280;27051;50.376;19.152;2023-12-04T00:44:05;98755.39;;;-1.70;58.41
41306;BME280;27051;50.376;19.152;2023-12-04T00:46:32;98759.31;;;-1.70;58.30
41306;BME280;27051;50.376;19.152;2023-12-04T00:48:59;98764.02;;;-1.79;58.36
41306;BME280;27051;50.376;19.152;2023-12-04T00:51:26;98764.86;;;-1.72;58.54
41306;BME280;27051;50.376;19.152;2023-12-04T00:53:53;98764.65;;;-1.65;58.73
41306;BME280;27051;50.376;19.152;2023-12-04T00:56:20;98771.91;;;-1.57;58.63
41306;BME280;27051;50.376;19.152;2023-12-04T00:58:49;98769.27;;;-1.59;58.81
41306;BME280;27051;50.376;19.152;2023-12-04T01:01:16;98769.64;;;-1.54;59.01
41306;BME280;27051;50.376;19.152;2023-12-04T01:03:43;98767.26;;;-1.51;59.20
41306;BME280;27051;50.376;19.152;2023-12-04T01:06:22;98762.40;;;-1.44;59.28
41306;BME280;27051;50.376;19.152;2023-12-04T01:08:50;98761.80;;;-1.38;59.37
41306;BME280;27051;50.376;19.152;2023-12-04T01:11:17;98755.91;;;-1.35;59.34
41306;BME280;27051;50.376;19.152;2023-12-04T01:13:45;98757.29;;;-1.30;59.40
41306;BME280;27051;50.376;19.152;2023-12-04T01:16:13;98761.84;;;-1.28;59.24
41306;BME280;27051;50.376;19.152;2023-12-04T01:18:41;98761.77;;;-1.26;59.25
41306;BME280;27051;50.376;19.152;2023-12-04T01:21:08;98760.01;;;-1.32;58.98
41306;BME280;27051;50.376;19.152;2023-12-04T01:23:36;98760.25;;;-1.39;59.09
41306;BME280;27051;50.376;19.152;2023-12-04T01:26:04;98762.65;;;-1.44;58.98
41306;BME280;27051;50.376;19.152;2023-12-04T01:28:31;98763.96;;;-1.49;59.15
41306;BME280;27051;50.376;19.152;2023-12-04T01:30:58;98766.27;;;-1.58;59.01
41306;BME280;27051;50.376;19.152;2023-12-04T01:33:25;98768.10;;;-1.68;59.09
41306;BME280;27051;50.376;19.152;2023-12-04T01:35:52;98771.55;;;-1.76;59.13
41306;BME280;27051;50.376;19.152;2023-12-04T01:38:19;98768.03;;;-1.78;59.14
41306;BME280;27051;50.376;19.152;2023-12-04T01:40:46;98771.71;;;-1.78;59.29
41306;BME280;27051;50.376;19.152;2023-12-04T01:43:12;98767.88;;;-1.78;59.28
41306;BME280;27051;50.376;19.152;2023-12-04T01:45:40;98763.58;;;-1.84;59.19
41306;BME280;27051;50.376;19.152;2023-12-04T01:48:07;98767.45;;;-1.86;59.36
41306;BME280;27051;50.376;19.152;2023-12-04T01:50:36;98769.73;;;-1.85;59.28
41306;BME280;27051;50.376;19.152;2023-12-04T01:53:03;98768.49;;;-1.90;59.28
41306;BME280;27051;50.376;19.152;2023-12-04T01:55:32;98766.19;;;-1.93;59.22
41306;BME280;27051;50.376;19.152;2023-12-04T01:58:02;98763.12;;;-1.97;59.27
41306;BME280;27051;50.376;19.152;2023-12-04T02:00:30;98768.36;;;-2.03;59.28
41306;BME280;27051;50.376;19.152;2023-12-04T02:02:59;98769.70;;;-2.04;59.36
41306;BME280;27051;50.376;19.152;2023-12-04T02:05:27;98766.42;;;-2.08;59.10
41306;BME280;27051;50.376;19.152;2023-12-04T02:07:54;98762.81;;;-2.11;59.22
41306;BME280;27051;50.376;19.152;2023-12-04T02:10:22;98762.09;;;-2.17;58.94
41306;BME280;27051;50.376;19.152;2023-12-04T02:12:50;98757.64;;;-2.17;59.22
41306;BME280;27051;50.376;19.152;2023-12-04T02:15:17;98760.60;;;-2.21;59.26
41306;BME280;27051;50.376;19.152;2023-12-04T02:17:44;98762.02;;;-2.24;59.27
41306;BME280;27051;50.376;19.152;2023-12-04T02:20:13;98766.66;;;-2.27;59.39
41306;BME280;27051;50.376;19.152;2023-12-04T02:22:40;98770.70;;;-2.28;59.42
41306;BME280;27051;50.376;19.152;2023-12-04T02:25:09;98767.41;;;-2.29;59.39
41306;BME280;27051;50.376;19.152;2023-12-04T02:27:48;98762.90;;;-2.32;59.39
41306;BME280;27051;50.376;19.152;2023-12-04T02:30:18;98764.06;;;-2.31;59.31
41306;BME280;27051;50.376;19.152;2023-12-04T02:32:48;98759.82;;;-2.30;59.30
41306;BME280;27051;50.376;19.152;2023-12-04T02:35:20;98751.06;;;-2.28;59.58
41306;BME280;27051;50.376;19.152;2023-12-04T02:37:48;98749.41;;;-2.22;59.45
41306;BME280;27051;50.376;19.152;2023-12-04T02:40:15;98749.02;;;-2.14;59.51
41306;BME280;27051;50.376;19.152;2023-12-04T02:42:44;98748.21;;;-2.21;59.07
41306;BME280;27051;50.376;19.152;2023-12-04T02:45:11;98748.79;;;-2.21;59.44
41306;BME280;27051;50.376;19.152;2023-12-04T02:47:38;98758.48;;;-2.15;59.60
41306;BME280;27051;50.376;19.152;2023-12-04T02:50:06;98760.62;;;-2.09;59.71
41306;BME280;27051;50.376;19.152;2023-12-04T02:52:33;98767.40;;;-2.03;59.65
41306;BME280;27051;50.376;19.152;2023-12-04T02:55:00;98768.34;;;-1.96;59.72
41306;BME280;27051;50.376;19.152;2023-12-04T02:57:27;98766.33;;;-1.91;59.62
41306;BME280;27051;50.376;19.152;2023-12-04T02:59:54;98768.36;;;-1.88;59.61
41306;BME280;27051;50.376;19.152;2023-12-04T03:02:21;98766.80;;;-1.87;59.53
41306;BME280;27051;50.376;19.152;2023-12-04T03:04:48;98764.81;;;-1.87;59.50
41306;BME280;27051;50.376;19.152;2023-12-04T03:07:15;98771.13;;;-1.90;59.52
41306;BME280;27051;50.376;19.152;2023-12-04T03:09:42;98767.98;;;-1.93;59.44
41306;BME280;27051;50.376;19.152;2023-12-04T03:12:08;98766.81;;;-2.04;59.45
41306;BME280;27051;50.376;19.152;2023-12-04T03:14:36;98765.98;;;-2.07;59.62
41306;BME280;27051;50.376;19.152;2023-12-04T03:17:03;98762.61;;;-2.06;59.51
41306;BME280;27051;50.376;19.152;2023-12-04T03:19:30;98758.25;;;-2.09;59.51
41306;BME280;27051;50.376;19.152;2023-12-04T03:21:57;98758.77;;;-2.10;59.53
41306;BME280;27051;50.376;19.152;2023-12-04T03:24:24;98761.41;;;-2.16;59.43
41306;BME280;27051;50.376;19.152;2023-12-04T03:26:50;98758.51;;;-2.23;59.48
41306;BME280;27051;50.376;19.152;2023-12-04T03:29:18;98761.27;;;-2.27;59.55
41306;BME280;27051;50.376;19.152;2023-12-04T03:31:45;98760.02;;;-2.30;59.66
41306;BME280;27051;50.376;19.152;2023-12-04T03:34:12;98759.61;;;-2.30;59.66
41306;BME280;27051;50.376;19.152;2023-12-04T03:36:38;98766.34;;;-2.30;59.53
41306;BME280;27051;50.376;19.152;2023-12-04T03:39:06;98766.98;;;-2.39;59.28
41306;BME280;27051;50.376;19.152;2023-12-04T03:41:32;98768.56;;;-2.46;59.12
41306;BME280;27051;50.376;19.152;2023-12-04T03:44:00;98775.71;;;-2.50;59.12
41306;BME280;27051;50.376;19.152;2023-12-04T03:46:27;98778.57;;;-2.52;58.82
41306;BME280;27051;50.376;19.152;2023-12-04T03:48:55;98785.12;;;-2.62;58.50
41306;BME280;27051;50.376;19.152;2023-12-04T03:51:22;98786.95;;;-2.72;58.39
41306;BME280;27051;50.376;19.152;2023-12-04T03:53:49;98783.95;;;-2.80;58.30
41306;BME280;27051;50.376;19.152;2023-12-04T03:56:16;98787.40;;;-2.87;58.30
41306;BME280;27051;50.376;19.152;2023-12-04T03:58:43;98790.13;;;-2.93;58.14
41306;BME280;27051;50.376;19.152;2023-12-04T04:01:10;98790.98;;;-3.03;58.00
41306;BME280;27051;50.376;19.152;2023-12-04T04:03:37;98794.71;;;-3.06;58.33
41306;BME280;27051;50.376;19.152;2023-12-04T04:06:04;98793.67;;;-3.08;58.03
41306;BME280;27051;50.376;19.152;2023-12-04T04:08:31;98793.73;;;-3.11;58.42
41306;BME280;27051;50.376;19.152;2023-12-04T04:10:59;98795.33;;;-3.01;58.94
41306;BME280;27051;50.376;19.152;2023-12-04T04:13:26;98796.05;;;-3.05;58.34
41306;BME280;27051;50.376;19.152;2023-12-04T04:15:53;98803.29;;;-3.06;58.65
41306;BME280;27051;50.376;19.152;2023-12-04T04:18:19;98802.02;;;-3.03;58.78
41306;BME280;27051;50.376;19.152;2023-12-04T04:20:46;98803.66;;;-3.00;59.07
41306;BME280;27051;50.376;19.152;2023-12-04T04:23:14;98805.77;;;-2.97;59.25
41306;BME280;27051;50.376;19.152;2023-12-04T04:25:40;98803.92;;;-2.90;59.19
41306;BME280;27051;50.376;19.152;2023-12-04T04:28:07;98800.43;;;-2.96;59.07
41306;BME280;27051;50.376;19.152;2023-12-04T04:30:34;98801.29;;;-2.92;59.36
41306;BME280;27051;50.376;19.152;2023-12-04T04:33:01;98802.20;;;-2.91;59.24
41306;BME280;27051;50.376;19.152;2023-12-04T04:35:28;98803.60;;;-2.93;59.06
41306;BME280;27051;50.376;19.152;2023-12-04T04:37:55;98805.30;;;-2.92;59.22
41306;BME280;27051;50.376;19.152;2023-12-04T04:40:22;98805.12;;;-2.93;58.70
41306;BME280;27051;50.376;19.152;2023-12-04T04:42:49;98808.70;;;-3.05;58.36
41306;BME280;27051;50.376;19.152;2023-12-04T04:45:16;98808.84;;;-3.12;58.61
41306;BME280;27051;50.376;19.152;2023-12-04T04:47:43;98806.71;;;-3.16;58.14
41306;BME280;27051;50.376;19.152;2023-12-04T04:50:10;98805.67;;;-3.15;58.32
41306;BME280;27051;50.376;19.152;2023-12-04T04:52:37;98810.09;;;-3.15;58.37
41306;BME280;27051;50.376;19.152;2023-12-04T04:55:05;98808.79;;;-3.17;58.05
41306;BME280;27051;50.376;19.152;2023-12-04T04:57:32;98804.00;;;-3.34;57.42
41306;BME280;27051;50.376;19.152;2023-12-04T04:59:59;98806.88;;;-3.43;57.53
41306;BME280;27051;50.376;19.152;2023-12-04T05:02:26;98802.95;;;-3.42;57.70
41306;BME280;27051;50.376;19.152;2023-12-04T05:04:53;98803.43;;;-3.32;57.93
41306;BME280;27051;50.376;19.152;2023-12-04T05:07:20;98798.90;;;-3.30;57.78
41306;BME280;27051;50.376;19.152;2023-12-04T05:09:47;98797.61;;;-3.39;57.34
41306;BME280;27051;50.376;19.152;2023-12-04T05:12:14;98794.08;;;-3.52;57.33
41306;BME280;27051;50.376;19.152;2023-12-04T05:14:41;98795.08;;;-3.66;57.23
41306;BME280;27051;50.376;19.152;2023-12-04T05:17:08;98793.13;;;-3.66;57.37
41306;BME280;27051;50.376;19.152;2023-12-04T05:19:35;98793.36;;;-3.68;57.29
41306;BME280;27051;50.376;19.152;2023-12-04T05:22:03;98793.62;;;-3.68;57.34
41306;BME280;27051;50.376;19.152;2023-12-04T05:24:30;98793.90;;;-3.69;57.56
41306;BME280;27051;50.376;19.152;2023-12-04T05:26:57;98789.11;;;-3.67;57.29
41306;BME280;27051;50.376;19.152;2023-12-04T05:29:25;98784.91;;;-3.70;57.35
41306;BME280;27051;50.376;19.152;2023-12-04T05:31:51;98785.63;;;-3.74;57.47
41306;BME280;27051;50.376;19.152;2023-12-04T05:34:18;98789.33;;;-3.77;57.49
41306;BME280;27051;50.376;19.152;2023-12-04T05:36:45;98786.63;;;-3.80;57.45
41306;BME280;27051;50.376;19.152;2023-12-04T05:39:12;98780.23;;;-3.82;57.65
41306;BME280;27051;50.376;19.152;2023-12-04T05:41:39;98783.54;;;-3.89;57.04
41306;BME280;27051;50.376;19.152;2023-12-04T05:44:06;98791.33;;;-3.90;57.24
41306;BME280;27051;50.376;19.152;2023-12-04T05:46:33;98791.98;;;-3.89;56.96
41306;BME280;27051;50.376;19.152;2023-12-04T05:49:00;98791.46;;;-3.89;57.84
41306;BME280;27051;50.376;19.152;2023-12-04T05:51:27;98790.98;;;-3.76;58.65
41306;BME280;27051;50.376;19.152;2023-12-04T05:53:54;98791.88;;;-3.61;58.75
41306;BME280;27051;50.376;19.152;2023-12-04T05:56:21;98787.52;;;-3.53;58.33
41306;BME280;27051;50.376;19.152;2023-12-04T05:58:48;98786.30;;;-3.54;57.70
41306;BME280;27051;50.376;19.152;2023-12-04T06:01:15;98787.09;;;-3.54;57.53
41306;BME280;27051;50.376;19.152;2023-12-04T06:03:42;98780.02;;;-3.63;56.84
41306;BME280;27051;50.376;19.152;2023-12-04T06:06:09;98778.81;;;-3.77;56.83
41306;BME280;27051;50.376;19.152;2023-12-04T06:08:41;98777.97;;;-3.82;56.93
41306;BME280;27051;50.376;19.152;2023-12-04T06:11:22;98779.52;;;-3.83;57.01
41306;BME280;27051;50.376;19.152;2023-12-04T06:13:49;98784.71;;;-3.91;56.46
41306;BME280;27051;50.376;19.152;2023-12-04T06:16:16;98783.71;;;-3.95;56.46
41306;BME280;27051;50.376;19.152;2023-12-04T06:18:42;98781.95;;;-3.96;56.46
41306;BME280;27051;50.376;19.152;2023-12-04T06:21:09;98784.27;;;-3.94;56.93
41306;BME280;27051;50.376;19.152;2023-12-04T06:23:37;98789.10;;;-3.91;57.19
41306;BME280;27051;50.376;19.152;2023-12-04T06:26:04;98793.58;;;-4.00;56.42
41306;BME280;27051;50.376;19.152;2023-12-04T06:28:32;98791.89;;;-4.09;56.35
41306;BME280;27051;50.376;19.152;2023-12-04T06:30:59;98789.30;;;-4.21;56.15
41306;BME280;27051;50.376;19.152;2023-12-04T06:33:27;98792.86;;;-4.26;56.32
41306;BME280;27051;50.376;19.152;2023-12-04T06:35:54;98795.08;;;-4.31;56.30
41306;BME280;27051;50.376;19.152;2023-12-04T06:38:24;98788.98;;;-4.28;56.49
41306;BME280;27051;50.376;19.152;2023-12-04T06:40:51;98788.39;;;-4.24;56.45
41306;BME280;27051;50.376;19.152;2023-12-04T06:43:19;98787.50;;;-4.24;56.53
41306;BME280;27051;50.376;19.152;2023-12-04T06:45:46;98786.25;;;-4.21;56.37
41306;BME280;27051;50.376;19.152;2023-12-04T06:48:13;98789.44;;;-4.24;56.32
41306;BME280;27051;50.376;19.152;2023-12-04T06:50:42;98782.81;;;-4.24;56.27
41306;BME280;27051;50.376;19.152;2023-12-04T06:53:09;98782.80;;;-4.14;56.54
41306;BME280;27051;50.376;19.152;2023-12-04T06:55:36;98786.12;;;-4.00;56.50
41306;BME280;27051;50.376;19.152;2023-12-04T06:58:03;98782.25;;;-3.88;56.43
41306;BME280;27051;50.376;19.152;2023-12-04T07:00:30;98779.58;;;-3.82;56.33
41306;BME280;27051;50.376;19.152;2023-12-04T07:02:58;98776.98;;;-3.80;56.40
41306;BME280;27051;50.376;19.152;2023-12-04T07:05:24;98774.40;;;-3.72;56.40
41306;BME280;27051;50.376;19.152;2023-12-04T07:07:51;98776.95;;;-3.69;56.10
41306;BME280;27051;50.376;19.152;2023-12-04T07:10:18;98778.46;;;-3.62;56.15
41306;BME280;27051;50.376;19.152;2023-12-04T07:12:45;98780.54;;;-3.56;56.03
41306;BME280;27051;50.376;19.152;2023-12-04T07:15:12;98782.09;;;-3.52;55.69
41306;BME280;27051;50.376;19.152;2023-12-04T07:17:39;98785.02;;;-3.33;55.94
41306;BME280;27051;50.376;19.152;2023-12-04T07:20:07;98789.73;;;-3.24;55.64
41306;BME280;27051;50.376;19.152;2023-12-04T07:22:34;98792.04;;;-3.03;56.26
41306;BME280;27051;50.376;19.152;2023-12-04T07:25:01;98794.06;;;-2.70;56.51
41306;BME280;27051;50.376;19.152;2023-12-04T07:27:28;98794.78;;;-2.54;56.14
41306;BME280;27051;50.376;19.152;2023-12-04T07:29:55;98790.55;;;-2.53;55.68
41306;BME280;27051;50.376;19.152;2023-12-04T07:32:21;98790.21;;;-2.52;55.70
41306;BME280;27051;50.376;19.152;2023-12-04T07:34:48;98790.06;;;-2.48;56.05
41306;BME280;27051;50.376;19.152;2023-12-04T07:37:15;98788.42;;;-2.43;56.09
41306;BME280;27051;50.376;19.152;2023-12-04T07:39:43;98788.63;;;-2.54;55.69
41306;BME280;27051;50.376;19.152;2023-12-04T07:42:10;98792.19;;;-2.67;55.94
41306;BME280;27051;50.376;19.152;2023-12-04T07:44:37;98793.33;;;-2.79;56.12
41306;BME280;27051;50.376;19.152;2023-12-04T07:47:04;98791.41;;;-2.67;56.41
41306;BME280;27051;50.376;19.152;2023-12-04T07:49:31;98791.06;;;-2.54;56.24
41306;BME280;27051;50.376;19.152;2023-12-04T07:51:58;98788.92;;;-2.67;55.85
41306;BME280;27051;50.376;19.152;2023-12-04T07:54:25;98785.54;;;-2.92;55.74
41306;BME280;27051;50.376;19.152;2023-12-04T07:56:52;98785.14;;;-3.03;55.79
41306;BME280;27051;50.376;19.152;2023-12-04T07:59:19;98783.80;;;-3.18;55.78
41306;BME280;27051;50.376;19.152;2023-12-04T08:01:46;98783.25;;;-3.17;55.89
41306;BME280;27051;50.376;19.152;2023-12-04T08:04:13;98778.23;;;-3.17;55.95
41306;BME280;27051;50.376;19.152;2023-12-04T08:06:40;98778.91;;;-3.02;56.46
41306;BME280;27051;50.376;19.152;2023-12-04T08:09:07;98776.27;;;-2.88;56.17
41306;BME280;27051;50.376;19.152;2023-12-04T08:11:34;98772.46;;;-2.90;56.16
41306;BME280;27051;50.376;19.152;2023-12-04T08:14:00;98775.82;;;-3.01;56.09
41306;BME280;27051;50.376;19.152;2023-12-04T08:16:28;98775.17;;;-3.13;55.98
41306;BME280;27051;50.376;19.152;2023-12-04T08:18:55;98776.42;;;-3.11;56.31
41306;BME280;27051;50.376;19.152;2023-12-04T08:21:22;98785.40;;;-3.11;56.40
41306;BME280;27051;50.376;19.152;2023-12-04T08:23:49;98785.66;;;-2.92;56.68
41306;BME280;27051;50.376;19.152;2023-12-04T08:26:23;98789.21;;;-2.74;56.71
41306;BME280;27051;50.376;19.152;2023-12-04T08:28:51;98787.46;;;-2.55;56.40
41306;BME280;27051;50.376;19.152;2023-12-04T08:31:19;98780.11;;;-2.47;56.40
41306;BME280;27051;50.376;19.152;2023-12-04T08:33:46;98789.64;;;-2.39;56.54
41306;BME280;27051;50.376;19.152;2023-12-04T08:36:13;98791.46;;;-2.34;56.38
41306;BME280;27051;50.376;19.152;2023-12-04T08:38:40;98785.33;;;-2.29;56.57
41306;BME280;27051;50.376;19.152;2023-12-04T08:41:07;98791.61;;;-2.12;56.50
41306;BME280;27051;50.376;19.152;2023-12-04T08:43:34;98799.67;;;-2.04;56.26
41306;BME280;27051;50.376;19.152;2023-12-04T08:46:01;98793.64;;;-2.07;56.17
41306;BME280;27051;50.376;19.152;2023-12-04T08:48:28;98793.02;;;-1.99;56.18
41306;BME280;27051;50.376;19.152;2023-12-04T08:50:55;98794.51;;;-2.05;55.94
41306;BME280;27051;50.376;19.152;2023-12-04T08:53:22;98798.39;;;-2.06;56.09
41306;BME280;27051;50.376;19.152;2023-12-04T08:55:49;98796.25;;;-2.01;56.44
41306;BME280;27051;50.376;19.152;2023-12-04T08:58:16;98797.88;;;-1.81;57.27
41306;BME280;27051;50.376;19.152;2023-12-04T09:00:43;98796.33;;;-1.57;57.46
41306;BME280;27051;50.376;19.152;2023-12-04T09:03:10;98798.02;;;-1.39;57.58
41306;BME280;27051;50.376;19.152;2023-12-04T09:05:37;98792.05;;;-1.22;57.37
41306;BME280;27051;50.376;19.152;2023-12-04T09:08:04;98793.77;;;-1.15;56.89
41306;BME280;27051;50.376;19.152;2023-12-04T09:10:31;98794.11;;;-1.08;56.90
41306;BME280;27051;50.376;19.152;2023-12-04T09:13:01;98790.66;;;-1.06;56.49
41306;BME280;27051;50.376;19.152;2023-12-04T09:15:34;98792.04;;;-1.00;56.92
41306;BME280;27051;50.376;19.152;2023-12-04T09:18:01;98790.46;;;-0.82;57.29
41306;BME280;27051;50.376;19.152;2023-12-04T09:20:27;98781.67;;;-0.69;57.32
41306;BME280;27051;50.376;19.152;2023-12-04T09:22:54;98780.70;;;-0.73;56.85
41306;BME280;27051;50.376;19.152;2023-12-04T09:25:21;98778.22;;;-0.61;57.29
41306;BME280;27051;50.376;19.152;2023-12-04T09:27:48;98769.71;;;-0.45;57.29
41306;BME280;27051;50.376;19.152;2023-12-04T09:30:15;98768.70;;;-0.39;57.19
41306;BME280;27051;50.376;19.152;2023-12-04T09:32:42;98768.74;;;-0.29;57.29
41306;BME280;27051;50.376;19.152;2023-12-04T09:35:10;98764.77;;;-0.23;56.98
41306;BME280;27051;50.376;19.152;2023-12-04T09:37:37;98763.41;;;-0.16;57.29
41306;BME280;27051;50.376;19.152;2023-12-04T09:40:05;98762.86;;;-0.05;57.40
41306;BME280;27051;50.376;19.152;2023-12-04T09:42:32;98757.82;;;0.14;57.59
41306;BME280;27051;50.376;19.152;2023-12-04T09:45:00;98751.20;;;0.28;57.50
41306;BME280;27051;50.376;19.152;2023-12-04T09:47:29;98748.93;;;0.30;57.32
41306;BME280;27051;50.376;19.152;2023-12-04T09:49:56;98747.24;;;0.39;57.38
41306;BME280;27051;50.376;19.152;2023-12-04T09:52:28;98743.49;;;0.52;57.50
41306;BME280;27051;50.376;19.152;2023-12-04T09:54:55;98742.98;;;0.66;57.45
41306;BME280;27051;50.376;19.152;2023-12-04T09:57:23;98736.52;;;0.81;57.51
41306;BME280;27051;50.376;19.152;2023-12-04T09:59:51;98731.92;;;0.92;57.55
41306;BME280;27051;50.376;19.152;2023-12-04T10:02:20;98728.98;;;1.06;57.41
41306;BME280;27051;50.376;19.152;2023-12-04T10:04:47;98732.02;;;1.10;57.33
41306;BME280;27051;50.376;19.152;2023-12-04T10:07:14;98725.65;;;1.24;57.24
41306;BME280;27051;50.376;19.152;2023-12-04T10:09:41;98723.23;;;1.32;57.12
41306;BME280;27051;50.376;19.152;2023-12-04T10:12:09;98719.57;;;1.39;57.11
41306;BME280;27051;50.376;19.152;2023-12-04T10:14:36;98713.77;;;1.45;56.81
41306;BME280;27051;50.376;19.152;2023-12-04T10:17:15;98714.23;;;1.42;56.77
41306;BME280;27051;50.376;19.152;2023-12-04T10:22:30;98708.30;;;1.55;56.92
41306;BME280;27051;50.376;19.152;2023-12-04T10:24:57;98705.34;;;1.69;56.97
41306;BME280;27051;50.376;19.152;2023-12-04T10:27:26;98699.52;;;1.75;56.67
41306;BME280;27051;50.376;19.152;2023-12-04T10:33:34;98693.02;;;1.95;56.51
41306;BME280;27051;50.376;19.152;2023-12-04T10:36:00;98690.84;;;1.99;56.56
41306;BME280;27051;50.376;19.152;2023-12-04T10:38:27;98689.98;;;2.00;56.71
41306;BME280;27051;50.376;19.152;2023-12-04T10:40:56;98687.34;;;2.05;56.49
41306;BME280;27051;50.376;19.152;2023-12-04T10:43:46;98685.88;;;2.15;56.45
41306;BME280;27051;50.376;19.152;2023-12-04T10:46:37;98680.60;;;2.39;56.20
41306;BME280;27051;50.376;19.152;2023-12-04T10:49:10;98681.21;;;2.72;56.08
41306;BME280;27051;50.376;19.152;2023-12-04T10:51:41;98676.11;;;3.49;55.67
41306;BME280;27051;50.376;19.152;2023-12-04T10:54:08;98674.48;;;3.85;55.30
41306;BME280;27051;50.376;19.152;2023-12-04T10:56:36;98672.52;;;3.80;55.17
41306;BME280;27051;50.376;19.152;2023-12-04T10:59:10;98667.25;;;3.81;55.16
41306;BME280;27051;50.376;19.152;2023-12-04T11:01:42;98663.39;;;3.77;54.78
41306;BME280;27051;50.376;19.152;2023-12-04T11:04:16;98658.67;;;3.64;54.93
41306;BME280;27051;50.376;19.152;2023-12-04T11:06:52;98656.41;;;3.62;55.05
41306;BME280;27051;50.376;19.152;2023-12-04T11:09:32;98656.09;;;3.55;54.78
41306;BME280;27051;50.376;19.152;2023-12-04T11:12:08;98657.09;;;3.56;54.64
41306;BME280;27051;50.376;19.152;2023-12-04T11:14:55;98644.48;;;3.57;54.58
41306;BME280;27051;50.376;19.152;2023-12-04T11:17:24;98645.36;;;3.55;54.71
41306;BME280;27051;50.376;19.152;2023-12-04T11:20:13;98639.84;;;3.59;54.56
41306;BME280;27051;50.376;19.152;2023-12-04T11:25:37;98638.48;;;3.62;54.46
41306;BME280;27051;50.376;19.152;2023-12-04T11:28:05;98641.53;;;3.60;54.41
41306;BME280;27051;50.376;19.152;2023-12-04T11:30:36;98639.25;;;3.59;53.84
41306;BME280;27051;50.376;19.152;2023-12-04T11:33:10;98640.73;;;3.53;53.97
41306;BME280;27051;50.376;19.152;2023-12-04T11:35:38;98647.17;;;3.53;54.27
41306;BME280;27051;50.376;19.152;2023-12-04T11:38:08;98640.53;;;3.59;54.29
41306;BME280;27051;50.376;19.152;2023-12-04T11:40:45;98638.69;;;3.68;54.30
41306;BME280;27051;50.376;19.152;2023-12-04T11:43:28;98631.54;;;3.82;53.92
41306;BME280;27051;50.376;19.152;2023-12-04T11:46:19;98633.45;;;3.94;54.09
41306;BME280;27051;50.376;19.152;2023-12-04T11:49:33;98623.92;;;4.40;53.53
41306;BME280;27051;50.376;19.152;2023-12-04T11:52:06;98625.24;;;5.05;53.06
41306;BME280;27051;50.376;19.152;2023-12-04T11:55:12;98616.06;;;6.62;52.61
41306;BME280;27051;50.376;19.152;2023-12-04T11:57:59;98602.79;;;9.69;49.84
41306;BME280;27051;50.376;19.152;2023-12-04T12:00:37;98587.36;;;11.72;48.41
41306;BME280;27051;50.376;19.152;2023-12-04T12:03:14;98583.80;;;13.18;46.25
41306;BME280;27051;50.376;19.152;2023-12-04T12:05:48;98576.55;;;14.49;45.95
41306;BME280;27051;50.376;19.152;2023-12-04T12:08:16;98564.65;;;15.63;45.32
41306;BME280;27051;50.376;19.152;2023-12-04T12:10:46;98564.79;;;16.38;44.82
41306;BME280;27051;50.376;19.152;2023-12-04T12:13:25;98563.66;;;16.15;44.32
41306;BME280;27051;50.376;19.152;2023-12-04T12:15:53;98561.96;;;14.97;43.86
41306;BME280;27051;50.376;19.152;2023-12-04T12:18:21;98562.05;;;15.09;43.74
41306;BME280;27051;50.376;19.152;2023-12-04T12:20:49;98558.41;;;15.88;43.75
41306;BME280;27051;50.376;19.152;2023-12-04T12:23:16;98552.39;;;16.92;42.13
41306;BME280;27051;50.376;19.152;2023-12-04T12:25:45;98552.28;;;17.88;42.50
41306;BME280;27051;50.376;19.152;2023-12-04T12:28:13;98554.42;;;18.60;41.11
41306;BME280;27051;50.376;19.152;2023-12-04T12:30:40;98549.43;;;18.87;38.95
41306;BME280;27051;50.376;19.152;2023-12-04T12:33:09;98551.02;;;18.49;38.97
41306;BME280;27051;50.376;19.152;2023-12-04T12:35:42;98549.04;;;17.80;39.22
41306;BME280;27051;50.376;19.152;2023-12-04T12:38:09;98544.48;;;17.10;39.67
41306;BME280;27051;50.376;19.152;2023-12-04T12:40:36;98542.98;;;16.70;39.03
41306;BME280;27051;50.376;19.152;2023-12-04T12:43:05;98538.22;;;16.02;38.50
41306;BME280;27051;50.376;19.152;2023-12-04T12:48:20;98536.78;;;14.50;38.46
41306;BME280;27051;50.376;19.152;2023-12-04T12:51:08;98532.36;;;13.84;38.76
41306;BME280;27051;50.376;19.152;2023-12-04T12:53:57;98526.76;;;12.91;39.16
41306;BME280;27051;50.376;19.152;2023-12-04T12:56:24;98517.77;;;12.09;39.29
41306;BME280;27051;50.376;19.152;2023-12-04T12:59:20;98516.44;;;11.79;39.66
41306;BME280;27051;50.376;19.152;2023-12-04T13:04:58;98512.17;;;10.78;39.77
41306;BME280;27051;50.376;19.152;2023-12-04T13:07:35;98513.70;;;10.21;39.90
41306;BME280;27051;50.376;19.152;2023-12-04T13:10:12;98517.95;;;9.54;40.14
41306;BME280;27051;50.376;19.152;2023-12-04T13:15:37;98522.58;;;8.25;40.05
41306;BME280;27051;50.376;19.152;2023-12-04T13:18:33;98517.56;;;7.69;40.40
41306;BME280;27051;50.376;19.152;2023-12-04T13:21:40;98509.94;;;6.97;40.56